createdAt,value
2022-12-03T00:01:01.785Z,25.63
2022-12-03T00:03:29.535Z,26.03
2022-12-03T00:05:56.655Z,24.63
2022-12-03T00:08:23.541Z,22.53
2022-12-03T00:10:51.392Z,22.27
2022-12-03T00:13:18.371Z,23.73
2022-12-03T00:15:45.254Z,29.77
2022-12-03T00:18:12.296Z,23.33
2022-12-03T00:20:39.216Z,23.87
2022-12-03T00:23:06.132Z,25.00
2022-12-03T00:25:33.109Z,23.40
2022-12-03T00:27:59.974Z,22.70
2022-12-03T00:30:26.890Z,18.83
2022-12-03T00:32:53.860Z,23.77
2022-12-03T00:35:20.741Z,23.33
2022-12-03T00:37:47.730Z,20.60
2022-12-03T00:40:14.877Z,24.53
2022-12-03T00:42:41.990Z,20.70
2022-12-03T00:45:09.268Z,20.90
2022-12-03T00:47:36.106Z,21.57
2022-12-03T00:50:03.349Z,20.63
2022-12-03T00:52:30.289Z,20.53
2022-12-03T00:54:57.115Z,20.90
2022-12-03T00:57:24.045Z,18.80
2022-12-03T00:59:50.927Z,18.83
2022-12-03T01:02:18.037Z,19.47
2022-12-03T01:04:47.165Z,21.73
2022-12-03T01:07:14.561Z,23.27
2022-12-03T01:09:41.550Z,22.70
2022-12-03T01:12:08.455Z,19.53
2022-12-03T01:14:35.457Z,19.97
2022-12-03T01:17:02.295Z,21.00
2022-12-03T01:19:29.554Z,24.90
2022-12-03T01:21:56.902Z,25.37
2022-12-03T01:24:23.822Z,22.73
2022-12-03T01:26:50.767Z,17.47
2022-12-03T01:29:17.847Z,19.03
2022-12-03T01:32:03.286Z,18.57
2022-12-03T01:34:30.199Z,20.70
2022-12-03T01:36:57.458Z,22.27
2022-12-03T01:39:24.712Z,21.43
2022-12-03T01:41:53.251Z,18.17
2022-12-03T01:44:26.286Z,20.60
2022-12-03T01:46:56.149Z,18.20
2022-12-03T01:49:27.362Z,19.47
2022-12-03T01:51:55.110Z,18.97
2022-12-03T01:54:27.230Z,19.47
2022-12-03T01:56:55.448Z,16.37
2022-12-03T01:59:27.956Z,19.17
2022-12-03T02:01:54.937Z,18.23
2022-12-03T02:04:23.649Z,17.87
2022-12-03T02:06:50.742Z,17.97
2022-12-03T02:09:17.666Z,19.13
2022-12-03T02:11:48.867Z,16.30
2022-12-03T02:14:21.929Z,18.07
2022-12-03T02:16:48.973Z,17.50
2022-12-03T02:19:26.787Z,17.27
2022-12-03T02:22:11.284Z,18.53
2022-12-03T02:25:07.452Z,17.50
2022-12-03T02:27:34.437Z,16.73
2022-12-03T02:30:01.405Z,16.37
2022-12-03T02:32:28.626Z,18.40
2022-12-03T02:34:55.925Z,18.53
2022-12-03T02:37:27.730Z,18.07
2022-12-03T02:39:58.508Z,16.87
2022-12-03T02:42:37.953Z,18.93
2022-12-03T02:45:07.876Z,17.70
2022-12-03T02:47:41.387Z,17.57
2022-12-03T02:50:09.835Z,17.33
2022-12-03T02:52:37.223Z,19.50
2022-12-03T02:55:06.851Z,17.30
2022-12-03T02:57:36.101Z,17.80
2022-12-03T03:00:04.137Z,18.93
2022-12-03T03:02:31.216Z,17.70
2022-12-03T03:04:58.587Z,19.93
2022-12-03T03:07:25.804Z,17.77
2022-12-03T03:09:52.808Z,18.57
2022-12-03T03:12:19.812Z,18.80
2022-12-03T03:14:46.837Z,17.30
2022-12-03T03:17:13.970Z,18.27
2022-12-03T03:19:41.071Z,17.90
2022-12-03T03:22:10.610Z,18.97
2022-12-03T03:24:38.017Z,17.63
2022-12-03T03:27:05.657Z,20.57
2022-12-03T03:29:33.801Z,17.80
2022-12-03T03:32:02.211Z,17.33
2022-12-03T03:34:32.531Z,17.00
2022-12-03T03:36:59.483Z,18.87
2022-12-03T03:39:26.492Z,19.00
2022-12-03T03:41:53.394Z,17.13
2022-12-03T03:44:20.345Z,16.90
2022-12-03T03:46:48.795Z,16.17
2022-12-03T03:49:16.378Z,19.10
2022-12-03T03:51:43.601Z,15.37
2022-12-03T03:54:10.636Z,17.03
2022-12-03T03:56:37.630Z,17.37
2022-12-03T03:59:04.797Z,18.07
2022-12-03T04:01:32.053Z,20.73
2022-12-03T04:03:59.737Z,16.87
2022-12-03T04:06:27.658Z,21.60
2022-12-03T04:08:54.853Z,17.30
2022-12-03T04:11:40.243Z,18.23
2022-12-03T04:14:07.174Z,19.13
2022-12-03T04:16:34.158Z,20.50
2022-12-03T04:19:01.092Z,21.20
2022-12-03T04:21:46.333Z,19.50
2022-12-03T04:24:13.427Z,18.23
2022-12-03T04:26:58.629Z,18.90
2022-12-03T04:29:25.623Z,20.47
2022-12-03T04:32:10.932Z,21.60
2022-12-03T04:34:56.520Z,19.23
2022-12-03T04:37:23.828Z,20.93
2022-12-03T04:39:50.952Z,19.17
2022-12-03T04:42:17.949Z,20.00
2022-12-03T04:44:44.883Z,20.83
2022-12-03T04:47:17.759Z,18.90
2022-12-03T04:49:47.047Z,17.73
2022-12-03T04:52:16.485Z,20.70
2022-12-03T04:54:43.561Z,19.83
2022-12-03T04:57:11.763Z,22.20
2022-12-03T04:59:39.214Z,17.93
2022-12-03T05:02:07.621Z,19.20
2022-12-03T05:04:34.630Z,19.10
2022-12-03T05:07:01.618Z,21.03
2022-12-03T05:09:28.701Z,22.03
2022-12-03T05:11:55.589Z,19.93
2022-12-03T05:14:22.568Z,20.93
2022-12-03T05:16:49.496Z,21.10
2022-12-03T05:19:16.650Z,20.93
2022-12-03T05:21:43.585Z,22.67
2022-12-03T05:24:10.458Z,19.30
2022-12-03T05:26:37.398Z,21.47
2022-12-03T05:29:04.393Z,20.40
2022-12-03T05:31:31.278Z,19.03
2022-12-03T05:33:58.401Z,18.10
2022-12-03T05:36:25.611Z,17.33
2022-12-03T05:38:52.787Z,20.47
2022-12-03T05:41:38.079Z,18.63
2022-12-03T05:44:05.068Z,19.90
2022-12-03T05:46:32.878Z,22.67
2022-12-03T05:48:59.962Z,21.67
2022-12-03T05:51:27.014Z,20.63
2022-12-03T05:53:53.885Z,22.40
2022-12-03T05:56:20.849Z,19.17
2022-12-03T05:58:47.850Z,20.90
2022-12-03T06:01:14.692Z,21.00
2022-12-03T06:03:41.686Z,20.67
2022-12-03T06:06:08.699Z,19.70
2022-12-03T06:08:35.596Z,21.27
2022-12-03T06:11:02.764Z,21.23
2022-12-03T06:13:29.834Z,20.60
2022-12-03T06:15:56.764Z,19.60
2022-12-03T06:18:23.690Z,20.03
2022-12-03T06:20:50.622Z,17.47
2022-12-03T06:23:17.562Z,19.47
2022-12-03T06:25:44.546Z,19.17
2022-12-03T06:28:11.450Z,19.70
2022-12-03T06:30:38.354Z,21.23
2022-12-03T06:33:05.346Z,20.97
2022-12-03T06:35:32.278Z,13.53
2022-12-03T06:37:59.279Z,19.10
2022-12-03T06:40:26.494Z,21.73
2022-12-03T06:42:53.619Z,21.50
2022-12-03T06:45:20.522Z,20.07
2022-12-03T06:47:47.577Z,22.13
2022-12-03T06:50:14.708Z,17.30
2022-12-03T06:52:41.726Z,21.00
2022-12-03T06:55:09.544Z,22.97
2022-12-03T06:57:36.499Z,16.37
2022-12-03T07:00:06.104Z,16.43
2022-12-03T07:02:33.052Z,17.67
2022-12-03T07:04:59.979Z,19.10
2022-12-03T07:07:27.196Z,16.93
2022-12-03T07:09:54.445Z,17.10
2022-12-03T07:12:21.304Z,17.10
2022-12-03T07:14:48.292Z,16.67
2022-12-03T07:17:15.426Z,18.33
2022-12-03T07:19:42.624Z,16.13
2022-12-03T07:22:09.528Z,13.97
2022-12-03T07:24:36.498Z,15.03
2022-12-03T07:27:03.552Z,15.57
2022-12-03T07:29:30.574Z,17.13
2022-12-03T07:31:57.456Z,16.50
2022-12-03T07:34:24.411Z,15.57
2022-12-03T07:36:51.240Z,13.10
2022-12-03T07:39:18.229Z,12.33
2022-12-03T07:41:45.268Z,13.53
2022-12-03T07:44:14.681Z,15.27
2022-12-03T07:46:42.683Z,13.53
2022-12-03T07:49:10.269Z,11.57
2022-12-03T07:51:37.337Z,7.27
2022-12-03T07:54:05.071Z,14.83
2022-12-03T07:56:32.990Z,16.20
2022-12-03T07:59:00.067Z,18.30
2022-12-03T08:01:27.546Z,15.37
2022-12-03T08:03:54.611Z,14.63
2022-12-03T08:06:21.540Z,16.23
2022-12-03T08:08:48.457Z,17.70
2022-12-03T08:11:15.644Z,16.47
2022-12-03T08:13:43.018Z,16.37
2022-12-03T08:16:16.945Z,11.20
2022-12-03T08:18:44.764Z,20.87
2022-12-03T08:21:18.066Z,20.70
2022-12-03T08:23:45.552Z,19.80
2022-12-03T08:26:25.257Z,21.80
2022-12-03T08:28:53.251Z,19.33
2022-12-03T08:31:32.236Z,18.40
2022-12-03T08:34:19.217Z,18.07
2022-12-03T08:36:47.998Z,18.47
2022-12-03T08:39:33.721Z,17.10
2022-12-03T08:42:34.428Z,21.50
2022-12-03T08:45:32.697Z,17.47
2022-12-03T08:48:22.467Z,19.37
2022-12-03T08:50:49.925Z,14.93
2022-12-03T08:53:36.908Z,24.23
2022-12-03T08:56:23.617Z,17.90
2022-12-03T08:59:18.976Z,18.97
2022-12-03T09:01:47.662Z,12.80
2022-12-03T09:04:45.117Z,14.50
2022-12-03T09:07:12.053Z,18.13
2022-12-03T09:09:39.384Z,13.37
2022-12-03T09:12:06.603Z,13.40
2022-12-03T09:14:33.511Z,16.83
2022-12-03T09:17:00.714Z,16.57
2022-12-03T09:19:31.154Z,16.43
2022-12-03T09:21:58.611Z,15.77
2022-12-03T09:24:25.745Z,18.27
2022-12-03T09:26:52.770Z,18.80
2022-12-03T09:29:19.963Z,13.57
2022-12-03T09:31:47.135Z,20.00
2022-12-03T09:34:14.283Z,17.50
2022-12-03T09:36:41.281Z,18.50
2022-12-03T09:39:08.247Z,18.67
2022-12-03T09:41:35.616Z,17.10
2022-12-03T09:44:04.352Z,15.83
2022-12-03T09:46:32.653Z,24.03
2022-12-03T09:49:01.140Z,12.30
2022-12-03T09:51:32.857Z,12.87
2022-12-03T09:54:01.478Z,14.60
2022-12-03T09:56:28.833Z,11.57
2022-12-03T09:58:56.081Z,13.27
2022-12-03T10:01:26.789Z,13.17
2022-12-03T10:03:56.278Z,14.33
2022-12-03T10:06:24.169Z,14.73
2022-12-03T10:08:54.561Z,9.23
2022-12-03T10:11:24.815Z,11.93
2022-12-03T10:13:53.278Z,11.43
2022-12-03T10:16:21.174Z,12.33
2022-12-03T10:18:54.505Z,12.17
2022-12-03T10:21:34.564Z,11.20
2022-12-03T10:24:21.717Z,12.53
2022-12-03T10:26:51.082Z,14.07
2022-12-03T10:29:21.206Z,13.87
2022-12-03T10:31:59.628Z,6.17
2022-12-03T10:34:33.241Z,16.43
2022-12-03T10:37:19.859Z,14.47
2022-12-03T10:40:09.400Z,14.90
2022-12-03T10:42:41.025Z,9.57
2022-12-03T10:45:15.959Z,17.37
2022-12-03T10:47:44.065Z,17.40
2022-12-03T10:50:19.570Z,10.40
2022-12-03T10:52:47.269Z,15.53
2022-12-03T10:55:16.023Z,9.33
2022-12-03T10:57:45.865Z,12.60
2022-12-03T11:00:18.827Z,15.30
2022-12-03T11:02:53.351Z,13.93
2022-12-03T11:05:27.421Z,15.03
2022-12-03T11:07:55.288Z,15.00
2022-12-03T11:10:22.424Z,10.07
2022-12-03T11:13:29.277Z,10.93
2022-12-03T11:15:56.930Z,9.90
2022-12-03T11:18:39.134Z,8.47
2022-12-03T11:21:07.446Z,13.10
2022-12-03T11:23:46.641Z,12.70
2022-12-03T11:26:19.455Z,17.90
2022-12-03T11:28:46.980Z,17.97
2022-12-03T11:31:41.993Z,20.20
2022-12-03T11:34:21.197Z,15.40
2022-12-03T11:37:12.883Z,16.00
2022-12-03T11:39:52.112Z,11.23
2022-12-03T11:42:28.444Z,9.73
2022-12-03T11:45:28.082Z,13.03
2022-12-03T11:48:16.516Z,8.90
2022-12-03T11:50:53.807Z,12.43
2022-12-03T11:53:31.504Z,8.27
2022-12-03T11:56:08.977Z,6.70
2022-12-03T11:58:38.760Z,9.30
2022-12-03T12:01:07.582Z,12.47
2022-12-03T12:03:36.403Z,9.80
2022-12-03T12:06:15.708Z,6.90
2022-12-03T12:08:56.944Z,10.67
2022-12-03T12:11:30.972Z,8.20
2022-12-03T12:14:00.075Z,14.07
2022-12-03T12:16:42.326Z,9.30
2022-12-03T12:19:43.024Z,13.93
2022-12-03T12:22:25.133Z,11.03
2022-12-03T12:24:53.817Z,13.27
2022-12-03T12:27:45.271Z,11.90
2022-12-03T12:30:18.521Z,18.60
2022-12-03T12:33:16.160Z,12.73
2022-12-03T12:35:43.286Z,15.50
2022-12-03T12:38:13.039Z,16.13
2022-12-03T12:40:41.979Z,18.40
2022-12-03T12:43:26.798Z,15.97
2022-12-03T12:45:56.321Z,13.10
2022-12-03T12:48:23.614Z,15.80
2022-12-03T12:51:11.534Z,12.20
2022-12-03T12:53:40.372Z,13.93
2022-12-03T12:56:32.685Z,12.07
2022-12-03T12:59:12.932Z,15.50
2022-12-03T13:01:41.392Z,13.10
2022-12-03T13:04:17.636Z,11.40
2022-12-03T13:06:46.312Z,11.07
2022-12-03T13:09:25.285Z,13.17
2022-12-03T13:12:00.549Z,11.07
2022-12-03T13:14:36.873Z,7.23
2022-12-03T13:17:24.635Z,11.60
2022-12-03T13:20:00.425Z,11.93
2022-12-03T13:22:32.192Z,13.90
2022-12-03T13:25:58.247Z,13.73
2022-12-03T13:28:20.517Z,12.77
2022-12-03T13:30:47.525Z,11.13
2022-12-03T13:33:26.593Z,15.30
2022-12-03T13:35:55.740Z,13.50
2022-12-03T13:38:26.300Z,12.93
2022-12-03T13:41:01.551Z,8.47
2022-12-03T13:43:31.909Z,10.47
2022-12-03T13:46:00.255Z,4.27
2022-12-03T13:48:35.152Z,9.70
2022-12-03T13:51:16.314Z,10.37
2022-12-03T13:53:43.344Z,12.73
2022-12-03T13:56:30.684Z,9.80
2022-12-03T13:59:00.223Z,9.10
2022-12-03T14:01:28.268Z,8.67
2022-12-03T14:03:55.589Z,8.17
2022-12-03T14:06:22.618Z,7.37
2022-12-03T14:08:49.514Z,13.13
2022-12-03T14:11:34.857Z,12.03
2022-12-03T14:14:01.748Z,5.20
2022-12-03T14:16:28.642Z,10.40
2022-12-03T14:18:55.766Z,10.87
2022-12-03T14:21:22.664Z,5.53
2022-12-03T14:23:49.677Z,5.03
2022-12-03T14:26:16.624Z,4.73
2022-12-03T14:28:43.588Z,7.80
2022-12-03T14:31:10.468Z,8.30
2022-12-03T14:33:37.353Z,10.70
2022-12-03T14:36:04.795Z,10.77
2022-12-03T14:38:31.779Z,9.90
2022-12-03T14:40:58.634Z,6.27
2022-12-03T14:43:25.485Z,10.50
2022-12-03T14:45:52.511Z,10.67
2022-12-03T14:48:19.455Z,11.80
2022-12-03T14:50:46.420Z,13.77
2022-12-03T14:53:13.285Z,11.70
2022-12-03T14:55:40.291Z,10.43
2022-12-03T14:58:07.228Z,11.07
2022-12-03T15:00:34.239Z,12.57
2022-12-03T15:03:01.242Z,10.77
2022-12-03T15:05:29.134Z,16.50
2022-12-03T15:07:56.507Z,13.87
2022-12-03T15:10:23.553Z,7.77
2022-12-03T15:12:50.631Z,9.50
2022-12-03T15:15:17.772Z,7.37
2022-12-03T15:17:45.759Z,11.00
2022-12-03T15:20:13.248Z,5.63
2022-12-03T15:22:40.106Z,16.40
2022-12-03T15:25:07.827Z,11.83
2022-12-03T15:27:34.911Z,13.33
2022-12-03T15:30:01.955Z,11.33
2022-12-03T15:32:28.862Z,13.37
2022-12-03T15:34:55.739Z,10.00
2022-12-03T15:37:27.504Z,11.73
2022-12-03T15:39:55.074Z,12.80
2022-12-03T15:42:22.244Z,6.27
2022-12-03T15:44:49.190Z,10.17
2022-12-03T15:47:16.154Z,10.87
2022-12-03T15:49:42.994Z,16.37
2022-12-03T15:52:09.858Z,14.30
2022-12-03T15:54:37.134Z,16.33
2022-12-03T15:57:04.063Z,13.03
2022-12-03T15:59:31.010Z,13.47
2022-12-03T16:01:58.015Z,10.50
2022-12-03T16:04:25.027Z,8.10
2022-12-03T16:06:51.930Z,11.07
2022-12-03T16:09:23.728Z,6.13
2022-12-03T16:11:53.827Z,11.43
2022-12-03T16:14:20.734Z,9.60
2022-12-03T16:16:47.783Z,12.23
2022-12-03T16:19:14.892Z,11.33
2022-12-03T16:21:41.893Z,18.43
2022-12-03T16:24:08.925Z,17.27
2022-12-03T16:26:35.891Z,16.13
2022-12-03T16:29:02.916Z,11.93
2022-12-03T16:31:30.110Z,13.93
2022-12-03T16:33:57.193Z,13.90
2022-12-03T16:36:24.190Z,11.17
2022-12-03T16:38:51.135Z,24.67
2022-12-03T16:41:18.634Z,11.13
2022-12-03T16:43:48.401Z,14.17
2022-12-03T16:46:15.453Z,8.73
2022-12-03T16:48:43.305Z,10.53
2022-12-03T16:51:10.766Z,13.63
2022-12-03T16:53:37.683Z,12.07
2022-12-03T16:56:04.785Z,12.67
2022-12-03T16:58:31.740Z,9.47
2022-12-03T17:00:58.708Z,9.43
2022-12-03T17:03:30.343Z,12.37
2022-12-03T17:06:00.939Z,14.73
2022-12-03T17:08:28.180Z,12.87
2022-12-03T17:10:55.141Z,14.33
2022-12-03T17:13:23.205Z,6.40
2022-12-03T17:15:51.099Z,12.43
2022-12-03T17:18:18.071Z,8.10
2022-12-03T17:20:44.962Z,9.27
2022-12-03T17:23:12.262Z,13.97
2022-12-03T17:25:39.218Z,7.87
2022-12-03T17:28:06.209Z,5.47
2022-12-03T17:30:33.269Z,14.13
2022-12-03T17:33:00.314Z,4.83
2022-12-03T17:35:28.588Z,12.80
2022-12-03T17:37:55.712Z,6.93
2022-12-03T17:40:23.166Z,15.10
2022-12-03T17:42:50.130Z,18.63
2022-12-03T17:45:17.166Z,9.10
2022-12-03T17:47:44.214Z,21.17
2022-12-03T17:50:11.672Z,14.70
2022-12-03T17:52:38.568Z,13.43
2022-12-03T17:55:15.984Z,6.10
2022-12-03T17:57:48.436Z,7.97
2022-12-03T18:00:15.813Z,18.77
2022-12-03T18:02:42.856Z,14.97
2022-12-03T18:05:10.035Z,11.67
2022-12-03T18:07:37.086Z,18.27
2022-12-03T18:10:04.466Z,16.73
2022-12-03T18:12:31.503Z,14.47
2022-12-03T18:14:58.500Z,16.77
2022-12-03T18:17:25.435Z,11.93
2022-12-03T18:19:52.839Z,15.50
2022-12-03T18:22:20.079Z,11.30
2022-12-03T18:24:51.573Z,12.87
2022-12-03T18:27:21.067Z,15.93
2022-12-03T18:29:48.497Z,13.50
2022-12-03T18:32:28.358Z,6.30
2022-12-03T18:34:56.773Z,8.43
2022-12-03T18:37:27.242Z,12.67
2022-12-03T18:39:55.348Z,21.13
2022-12-03T18:42:23.571Z,15.53
2022-12-03T18:44:52.920Z,17.20
2022-12-03T18:47:27.207Z,16.60
2022-12-03T18:49:54.962Z,15.90
2022-12-03T18:52:24.893Z,13.97
2022-12-03T18:54:52.479Z,14.53
2022-12-03T18:57:19.439Z,15.87
2022-12-03T18:59:46.542Z,18.50
2022-12-03T19:02:38.650Z,17.77
2022-12-03T19:05:04.336Z,12.43
2022-12-03T19:07:31.231Z,12.20
2022-12-03T19:09:58.214Z,27.37
2022-12-03T19:12:25.196Z,16.07
2022-12-03T19:14:52.246Z,18.17
2022-12-03T19:17:19.251Z,16.50
2022-12-03T19:19:46.535Z,20.40
2022-12-03T19:22:13.606Z,6.57
2022-12-03T19:24:40.633Z,14.00
2022-12-03T19:27:07.587Z,15.40
2022-12-03T19:29:34.637Z,19.43
2022-12-03T19:32:01.797Z,16.20
2022-12-03T19:34:29.987Z,11.00
2022-12-03T19:36:56.906Z,15.87
2022-12-03T19:39:24.169Z,11.00
2022-12-03T19:41:51.378Z,11.60
2022-12-03T19:44:19.224Z,7.27
2022-12-03T19:46:46.164Z,13.60
2022-12-03T19:49:13.152Z,13.07
2022-12-03T19:51:40.164Z,15.50
2022-12-03T19:54:10.193Z,11.27
2022-12-03T19:56:37.286Z,12.53
2022-12-03T19:59:05.240Z,13.73
2022-12-03T20:01:34.467Z,15.60
2022-12-03T20:04:03.906Z,12.23
2022-12-03T20:06:33.680Z,11.57
2022-12-03T20:09:04.810Z,14.07
2022-12-03T20:11:33.563Z,6.17
2022-12-03T20:14:06.874Z,10.90
2022-12-03T20:16:34.717Z,12.03
2022-12-03T20:19:05.169Z,10.80
2022-12-03T20:21:33.611Z,10.20
2022-12-03T20:24:00.951Z,7.40
2022-12-03T20:26:28.557Z,13.70
2022-12-03T20:28:56.372Z,12.70
2022-12-03T20:31:28.023Z,16.93
2022-12-03T20:33:58.619Z,15.00
2022-12-03T20:36:27.049Z,15.40
2022-12-03T20:39:00.015Z,16.33
2022-12-03T20:41:27.287Z,14.40
2022-12-03T20:43:55.016Z,16.00
2022-12-03T20:46:29.303Z,16.63
2022-12-03T20:48:57.067Z,14.17
2022-12-03T20:51:26.407Z,16.40
2022-12-03T20:53:54.014Z,14.87
2022-12-03T20:56:33.070Z,14.20
2022-12-03T20:59:05.467Z,14.67
2022-12-03T21:01:32.634Z,14.53
2022-12-03T21:03:59.637Z,16.17
2022-12-03T21:06:28.046Z,12.67
2022-12-03T21:08:56.131Z,12.93
2022-12-03T21:11:26.093Z,9.27
2022-12-03T21:13:54.117Z,16.50
2022-12-03T21:16:45.533Z,15.97
2022-12-03T21:19:11.598Z,15.27
2022-12-03T21:21:38.499Z,17.30
2022-12-03T21:24:05.667Z,15.57
2022-12-03T21:26:32.677Z,18.47
2022-12-03T21:28:59.773Z,16.67
2022-12-03T21:31:27.026Z,18.43
2022-12-03T21:33:56.324Z,15.87
2022-12-03T21:36:24.734Z,16.93
2022-12-03T21:38:52.464Z,16.30
2022-12-03T21:41:19.511Z,17.80
2022-12-03T21:43:46.581Z,20.83
2022-12-03T21:47:12.689Z,16.27
2022-12-03T21:49:04.121Z,16.07
2022-12-03T21:51:30.958Z,21.27
2022-12-03T21:53:57.917Z,19.83
2022-12-03T21:56:25.002Z,17.87
2022-12-03T21:58:51.959Z,18.47
2022-12-03T22:01:23.688Z,17.40
2022-12-03T22:03:51.401Z,16.40
2022-12-03T22:06:18.815Z,16.47
2022-12-03T22:08:46.252Z,10.77
2022-12-03T22:11:16.518Z,16.90
2022-12-03T22:13:43.584Z,14.77
2022-12-03T22:16:14.234Z,19.50
2022-12-03T22:18:41.788Z,23.13
2022-12-03T22:21:15.636Z,24.87
2022-12-03T22:23:42.657Z,19.97
2022-12-03T22:26:13.130Z,21.07
2022-12-03T22:28:44.343Z,25.77
2022-12-03T22:31:11.795Z,21.27
2022-12-03T22:33:39.495Z,21.17
2022-12-03T22:36:17.951Z,21.47
2022-12-03T22:38:47.539Z,17.23
2022-12-03T22:41:15.797Z,24.73
2022-12-03T22:43:43.043Z,21.60
2022-12-03T22:46:12.521Z,22.30
2022-12-03T22:48:41.786Z,22.10
2022-12-03T22:51:18.214Z,24.97
2022-12-03T22:53:45.326Z,24.63
2022-12-03T22:56:13.023Z,26.07
2022-12-03T22:58:41.131Z,23.40
2022-12-03T23:01:08.376Z,22.17
2022-12-03T23:03:36.240Z,22.00
2022-12-03T23:06:10.347Z,23.53
2022-12-03T23:08:37.660Z,20.93
2022-12-03T23:11:04.939Z,21.57
2022-12-03T23:13:32.081Z,22.63
2022-12-03T23:15:59.080Z,21.43
2022-12-03T23:18:26.038Z,26.43
2022-12-03T23:20:55.034Z,23.93
2022-12-03T23:23:24.157Z,24.07
2022-12-03T23:26:02.477Z,27.87
2022-12-03T23:28:31.046Z,22.07
2022-12-03T23:30:58.389Z,24.23
2022-12-03T23:33:27.788Z,26.03
2022-12-03T23:35:54.874Z,20.93
2022-12-03T23:38:21.941Z,11.10
2022-12-03T23:40:49.095Z,21.13
2022-12-03T23:43:20.037Z,20.07
2022-12-03T23:45:47.050Z,18.60
2022-12-03T23:48:14.009Z,22.60
2022-12-03T23:50:41.385Z,18.87
2022-12-03T23:53:08.958Z,20.27
2022-12-03T23:55:40.440Z,24.30
2022-12-03T23:58:07.775Z,23.33
